TimeCST,TemperatureF,Dew PointF,Humidity,Sea Level PressureIn,VisibilityMPH,Wind Direction,Wind SpeedMPH,Gust SpeedMPH,PrecipitationIn,Events,Conditions,WindDirDegrees,DateUTC
12:15 AM,61.7,50.0,65,29.85,10.0,South,16.1,25.3,N/A,,Clear,180,2012-11-11 06:15:00
12:35 AM,61.3,50.0,66,29.85,10.0,South,15.0,24.2,N/A,,Clear,180,2012-11-11 06:35:00
12:55 AM,61.2,50.0,67,29.85,10.0,South,15.0,21.9,N/A,,Clear,170,2012-11-11 06:55:00
1:15 AM,61.2,49.8,66,29.85,10.0,South,11.5,23.0,N/A,,Clear,170,2012-11-11 07:15:00
1:35 AM,61.0,49.6,66,29.85,10.0,South,12.7,19.6,N/A,,Clear,170,2012-11-11 07:35:00
1:55 AM,60.8,50.0,68,29.85,10.0,South,12.7,-,N/A,,Clear,170,2012-11-11 07:55:00
2:15 AM,60.8,50.0,68,29.85,10.0,South,12.7,19.6,N/A,,Clear,170,2012-11-11 08:15:00
2:35 AM,60.8,50.0,68,29.86,10.0,South,11.5,-,N/A,,Clear,170,2012-11-11 08:35:00
2:55 AM,61.0,50.4,68,29.86,10.0,South,10.4,16.1,N/A,,Mostly Cloudy,170,2012-11-11 08:55:00
3:15 AM,61.2,50.5,68,29.86,10.0,South,10.4,-,N/A,,Mostly Cloudy,170,2012-11-11 09:15:00
3:35 AM,60.8,50.5,69,29.85,10.0,South,10.4,-,N/A,,Scattered Clouds,170,2012-11-11 09:35:00
3:55 AM,60.8,50.5,69,29.85,10.0,SSE,11.5,17.3,N/A,,Mostly Cloudy,160,2012-11-11 09:55:00
4:15 AM,59.5,50.5,72,29.84,10.0,SSE,9.2,-,N/A,,Scattered Clouds,160,2012-11-11 10:15:00
4:35 AM,59.0,50.2,73,29.83,10.0,SE,8.1,-,N/A,,Clear,140,2012-11-11 10:35:00
4:55 AM,58.8,50.0,73,29.83,10.0,SE,9.2,-,N/A,,Clear,140,2012-11-11 10:55:00
5:15 AM,57.2,50.0,77,29.82,10.0,SE,11.5,16.1,N/A,,Scattered Clouds,140,2012-11-11 11:15:00
5:35 AM,57.2,49.3,75,29.81,10.0,SE,9.2,16.1,N/A,,Scattered Clouds,140,2012-11-11 11:35:00
5:55 AM,57.2,50.0,77,29.81,10.0,SSE,11.5,-,N/A,,Mostly Cloudy,150,2012-11-11 11:55:00
6:15 AM,57.2,49.3,75,29.81,10.0,SSE,9.2,17.3,N/A,,Mostly Cloudy,150,2012-11-11 12:15:00
6:35 AM,57.4,49.6,75,29.80,10.0,SSE,13.8,18.4,N/A,,Clear,160,2012-11-11 12:35:00
6:55 AM,57.6,50.0,76,29.80,10.0,SSE,12.7,18.4,N/A,,Clear,160,2012-11-11 12:55:00
7:15 AM,59.0,50.0,72,29.80,10.0,SSE,12.7,23.0,N/A,,Clear,160,2012-11-11 13:15:00
7:35 AM,59.0,50.9,74,29.79,10.0,SSE,16.1,23.0,N/A,,Clear,160,2012-11-11 13:35:00
7:55 AM,59.5,51.3,74,29.79,10.0,SSE,13.8,21.9,N/A,,Clear,160,2012-11-11 13:55:00
8:15 AM,59.9,51.6,74,29.78,10.0,SSE,16.1,25.3,N/A,,Clear,160,2012-11-11 14:15:00
8:35 AM,60.1,51.8,74,29.78,10.0,SSE,15.0,24.2,N/A,,Clear,160,2012-11-11 14:35:00
8:55 AM,61.5,52.3,72,29.77,10.0,SSE,21.9,31.1,N/A,,Scattered Clouds,160,2012-11-11 14:55:00
9:15 AM,62.6,53.6,72,29.77,10.0,SSE,20.7,27.6,N/A,,Scattered Clouds,160,2012-11-11 15:15:00
9:35 AM,62.6,53.1,71,29.77,10.0,South,21.9,32.2,N/A,,Scattered Clouds,170,2012-11-11 15:35:00
9:55 AM,63.0,53.4,71,29.76,10.0,South,21.9,29.9,N/A,,Scattered Clouds,170,2012-11-11 15:55:00
10:15 AM,63.9,53.6,69,29.75,10.0,South,24.2,33.4,N/A,,Scattered Clouds,170,2012-11-11 16:15:00
10:35 AM,64.6,53.8,68,29.75,10.0,South,21.9,36.8,N/A,,Mostly Cloudy,180,2012-11-11 16:35:00
10:55 AM,64.4,53.8,68,29.74,10.0,South,24.2,33.4,N/A,,Mostly Cloudy,170,2012-11-11 16:55:00
11:15 AM,64.8,53.8,68,29.74,10.0,South,25.3,32.2,N/A,,Overcast,170,2012-11-11 17:15:00
11:35 AM,63.9,53.8,70,29.73,10.0,South,23.0,32.2,N/A,,Overcast,190,2012-11-11 17:35:00
11:55 AM,64.4,54.0,69,29.72,10.0,South,25.3,35.7,N/A,,Overcast,170,2012-11-11 17:55:00
12:15 PM,64.8,54.1,68,29.69,10.0,South,21.9,32.2,N/A,,Overcast,170,2012-11-11 18:15:00
12:35 PM,64.9,54.1,68,29.68,10.0,South,24.2,34.5,N/A,,Mostly Cloudy,170,2012-11-11 18:35:00
12:55 PM,64.9,53.8,67,29.68,10.0,South,25.3,35.7,N/A,,Overcast,180,2012-11-11 18:55:00
1:15 PM,61.5,55.0,79,29.71,7.0,West,19.6,29.9,0.01,Rain,Rain,270,2012-11-11 19:15:00
1:35 PM,52.9,50.4,91,29.75,4.0,West,23.0,33.4,0.07,Rain,Rain,280,2012-11-11 19:35:00
1:55 PM,51.8,49.6,92,29.74,3.0,West,18.4,28.8,0.12,Rain,Heavy Rain,280,2012-11-11 19:55:00
2:15 PM,51.3,49.3,93,29.77,3.0,West,15.0,-,0.02,,Heavy Drizzle,270,2012-11-11 20:15:00
2:35 PM,51.1,49.5,94,29.78,5.0,West,5.8,9.2,0.05,Rain,Rain,280,2012-11-11 20:35:00
2:55 PM,50.9,49.3,94,29.77,10.0,West,5.8,-,0.06,Rain,Rain,280,2012-11-11 20:55:00
3:15 PM,50.7,49.1,94,29.79,7.0,WSW,5.8,-,0.02,Rain,Rain,240,2012-11-11 21:15:00
3:35 PM,50.0,48.2,94,29.80,7.0,WSW,8.1,-,0.04,Rain,Rain,250,2012-11-11 21:35:00
3:55 PM,48.7,47.3,95,29.81,5.0,WSW,6.9,-,0.09,Rain,Rain,250,2012-11-11 21:55:00
4:15 PM,48.6,47.3,95,29.84,7.0,West,8.1,-,0.03,Rain,Rain,270,2012-11-11 22:15:00
4:35 PM,46.4,44.4,93,29.84,7.0,West,13.8,-,0.07,Rain,Light Rain,280,2012-11-11 22:35:00
4:55 PM,43.7,41.9,93,29.87,5.0,WNW,13.8,-,0.11,Rain,Rain,290,2012-11-11 22:55:00
5:15 PM,41.2,39.4,93,29.87,7.0,West,12.7,-,0.02,Rain,Rain,270,2012-11-11 23:15:00
5:35 PM,40.3,38.8,95,29.89,7.0,West,13.8,-,0.05,Rain,Light Rain,270,2012-11-11 23:35:00
5:55 PM,39.7,38.3,95,29.90,5.0,ENE,16.1,19.6,0.08,Rain,Rain,70,2012-11-11 23:55:00
6:15 PM,38.8,37.2,94,29.89,10.0,East,17.3,-,0.01,Rain,Rain,80,2012-11-12 00:15:00
6:35 PM,38.3,36.7,94,29.90,7.0,East,15.0,21.9,0.03,Rain,Light Rain,80,2012-11-12 00:35:00
6:55 PM,37.4,35.8,94,29.94,5.0,North,15.0,19.6,0.05,Rain,Rain,360,2012-11-12 00:55:00
7:15 PM,36.7,35.1,94,29.95,5.0,ENE,16.1,21.9,0.04,Rain,Rain,70,2012-11-12 01:15:00
7:35 PM,34.3,32.9,94,29.95,4.0,North,10.4,-,0.10,Rain,Light Rain,360,2012-11-12 01:35:00
7:55 PM,32.9,32.2,97,29.99,3.0,SE,11.5,-,0.13,Snow,Light Snow,140,2012-11-12 01:55:00
8:15 PM,32.4,32.2,99,29.98,1.2,North,13.8,18.4,0.02,Snow,Light Snow,360,2012-11-12 02:15:00
8:35 PM,32.9,32.2,97,29.98,4.0,North,15.0,19.6,0.02,Snow,Light Snow,360,2012-11-12 02:35:00
8:55 PM,32.9,31.6,95,30.01,10.0,North,16.1,24.2,0.02,Snow,Light Snow,360,2012-11-12 02:55:00
9:15 PM,32.9,31.6,95,30.00,10.0,North,17.3,21.9,N/A,,Overcast,360,2012-11-12 03:15:00
9:35 PM,32.7,30.9,93,30.02,10.0,North,13.8,-,N/A,,Overcast,360,2012-11-12 03:35:00
9:55 PM,32.9,30.7,92,30.04,10.0,North,16.1,20.7,N/A,,Overcast,360,2012-11-12 03:55:00
10:15 PM,32.7,30.4,91,30.04,10.0,North,17.3,-,N/A,,Overcast,360,2012-11-12 04:15:00
10:35 PM,32.4,29.3,88,30.04,10.0,North,17.3,21.9,N/A,,Overcast,360,2012-11-12 04:35:00
10:55 PM,32.2,28.4,86,30.06,10.0,North,17.3,23.0,N/A,,Overcast,360,2012-11-12 04:55:00
11:15 PM,32.0,27.5,83,30.03,10.0,North,17.3,21.9,N/A,,Overcast,360,2012-11-12 05:15:00
11:35 PM,32.0,27.3,83,30.03,10.0,North,15.0,-,N/A,,Overcast,360,2012-11-12 05:35:00
11:55 PM,32.0,28.0,85,30.03,10.0,North,13.8,-,N/A,,Overcast,360,2012-11-12 05:55:00